METAR Data
IDs: Format: Raw Decoded Include TAF

Data at: 0013 UTC 25 Apr 2019

PAMH 242356Z AUTO 08004KT 10SM CLR 05/M08 A3009 RMK AO2 SLP943 T00501083 10056 21011 53003
PAMH 242256Z AUTO 07003KT 10SM CLR 04/M08 A3009 RMK AO2 SLP943 T00441083
PAMH 242156Z AUTO VRB03KT 10SM FEW110 04/M08 A3008 RMK AO2 SLP941 T00391083
PAMH 242056Z AUTO 00000KT 10SM CLR 03/M09 A3008 RMK AO2 SLP941 T00331094 51008
PAMH 241956Z AUTO 09005KT 10SM CLR 02/M09 A3008 RMK AO2 SLP940 T00221094 FZRANO
PAMH 241856Z AUTO 00000KT 10SM CLR 00/M08 A3007 RMK AO2 SLP935 T00001078 FZRANO
PAMH 241756Z AUTO 00000KT 10SM FEW100 01/M07 A3006 RMK AO2 SLP933 T00111067 10011 21061 51013 FZRANO
PAMH 241656Z AUTO 00000KT 10SM CLR M03/M04 A3005 RMK AO2 SLP931 T10331044 FZRANO
PAMH 241556Z AUTO 00000KT 10SM BKN100 M05/M07 A3004 RMK AO2 SLP926 T10501072 FZRANO
PAMH 241456Z AUTO 00000KT 10SM CLR M06/M07 A3002 RMK AO2 SLP921 T10611072 52011 FZRANO
PAMH 241356Z AUTO 00000KT 10SM FEW095 M04/M08 A3001 RMK AO2 SLP916 T10391078 FZRANO
PAMH 241256Z AUTO 00000KT 10SM OVC110 M04/M07 A3000 RMK AO2 SLP914 T10441067 FZRANO
PAMH 241156Z AUTO 00000KT 10SM OVC110 M02/M07 A2999 RMK AO2 SLP910 T10221072 11006 21033 51018 FZRANO
PAMH 241056Z AUTO 00000KT 10SM OVC095 M03/M06 A2998 RMK AO2 SLP906 T10331061 FZRANO
PAMH 240956Z AUTO 00000KT 10SM OVC110 M03/M07 A2996 RMK AO2 SLP900 T10281067 FZRANO
PAMH 240856Z AUTO 00000KT 10SM BKN120 M02/M06 A2994 RMK AO2 SLP892 T10171061 400171056 53017 FZRANO
PAMH 240756Z AUTO 00000KT 10SM BKN110 M02/M06 A2992 RMK AO2 SLP885 T10221061 FZRANO
PAMH 240656Z AUTO 00000KT 10SM CLR M01/M07 A2990 RMK AO2 SLP881 T10111067 FZRANO
PAMH 240556Z AUTO 00000KT 10SM SCT039 BKN110 M01/M06 A2989 RMK AO2 SLP875 T10061061 10017 21006 53016 FZRANO
PAMH 240456Z AUTO 23004KT 10SM BKN110 00/M07 A2987 RMK AO2 SLP868 T00001072 FZRANO
PAMH 240356Z AUTO 22005KT 10SM BKN041 01/M07 A2985 RMK AO2 SLP864 T00061067 FZRANO
PAMH 240256Z AUTO 21007KT 10SM BKN038 01/M07 A2984 RMK AO2 SLP859 T00111067 53011 FZRANO
PAMH 240156Z AUTO 00000KT 10SM BKN036 02/M07 A2983 RMK AO2 SLP855 T00171067 FZRANO
PAMH 240056Z AUTO 00000KT 10SM SCT031 01/M06 A2981 RMK AO2 SLP851 T00111061 FZRANO
PAMH 232356Z AUTO 24004KT 10SM FEW095 01/M07 A2980 RMK AO2 SLP848 T00111067 10011 21044 51012 FZRANO
PAMH 232256Z AUTO 22005KT 10SM SCT100 00/M06 A2979 RMK AO2 SLP844 T00001061 FZRANO
PAMH 232227Z AUTO 21006KT 10SM SCT024 00/M07 A2979 RMK AO2 FZRANO
PAMH 232212Z AUTO 20004KT 10SM BKN022 00/M06 A2979 RMK AO2 FZRANO
PAMH 232156Z AUTO 21005KT 10SM SCT022 M01/M06 A2978 RMK AO2 SLP841 T10061061 FZRANO
PAMH 232056Z AUTO 22006KT 10SM BKN018 OVC085 M02/M06 A2977 RMK AO2 SLP836 T10171061 51010 FZRANO
PAMH 232041Z AUTO 22007KT 10SM BKN018 BKN085 M02/M07 A2977 RMK AO2 FZRANO
PAMH 232003Z AUTO 22007KT 10SM SCT015 OVC090 M03/M07 A2976 RMK AO2 FZRANO
PAMH 231956Z AUTO 22006KT 10SM BKN015 OVC095 M03/M07 A2976 RMK AO2 SLP832 T10281067 FZRANO
PAMH 231952Z AUTO 23006KT 10SM BKN015 OVC095 M03/M07 A2975 RMK AO2 FZRANO
PAMH 231856Z AUTO 21010KT 10SM SCT013 OVC090 M04/M07 A2974 RMK AO2 SLP826 T10391072 FZRANO
PAMH 231756Z AUTO 22009KT 10SM OVC011 M04/M07 A2972 RMK AO2 SLP821 T10441072 11044 21056 51026 FZRANO
PAMH 231733Z AUTO 21007KT 10SM BKN011 OVC019 M05/M07 A2971 RMK AO2 FZRANO
PAMH 231656Z AUTO 22007KT 10SM OVC019 M05/M07 A2970 RMK AO2 SLP813 T10501072 FZRANO
PAMH 231556Z AUTO 22007KT 10SM OVC017 M05/M07 A2968 RMK AO2 SLP805 T10501067 FZRANO
PAMH 231456Z AUTO 22006KT 10SM OVC017 M05/M07 A2965 RMK AO2 SLP795 T10501067 51027 FZRANO
PAMH 231356Z AUTO 22004KT 10SM OVC017 M05/M06 A2962 RMK AO2 SLP787 T10501061 FZRANO
PAMH 231256Z AUTO 23005KT 10SM OVC017 M04/M06 A2959 RMK AO2 SLP777 T10441056 FZRANO